CheckWX is a tool to help pilots better visualize weather data.  It is not intended as a substitute for an official pre-flight weather briefing.

02:15:32 UTC

KAHN TAF
Athens / Ben Epps Airport
Athens, Georgia, USA
KAHN 182321Z 1900/1924 32007KT P6SM SCT250 FM190300 02007KT P6SM SCT250 FM191400 06010KT P6SM FEW250 FM192300 04005KT P6SM FEW250

Mar-19@
00:00 UTC

Mar-19 @ 00:00 UTC

Mar-19@
03:00 UTC

Mar-19 @ 03:00 UTC

KAHN 182321Z 1900/1924 32007KT P6SM SCT250
Wind
  • 320° at 7 KTS
Cloud Levels
  • Scattered at 25,000' AGL

Mar-19@
03:00 UTC

Mar-19 @ 03:00 UTC

Mar-19@
14:00 UTC

Mar-19 @ 14:00 UTC

FM190300 02007KT P6SM SCT250

From

From Standard forecast or significant change

Wind
  • 020° at 7 KTS
Cloud Levels
  • Scattered at 25,000' AGL

Mar-19@
14:00 UTC

Mar-19 @ 14:00 UTC

Mar-19@
23:00 UTC

Mar-19 @ 23:00 UTC

FM191400 06010KT P6SM FEW250

From

From Standard forecast or significant change

Wind
  • 060° at 10 KTS
Cloud Levels
  • Few at 25,000' AGL

Mar-19@
23:00 UTC

Mar-19 @ 23:00 UTC

Mar-20@
00:00 UTC

Mar-20 @ 00:00 UTC

FM192300 04005KT P6SM FEW250

From

From Standard forecast or significant change

Wind
  • 040° at 5 KTS
Cloud Levels
  • Few at 25,000' AGL